createdAt,value
2022-10-29T00:02:14.692Z,9.80
2022-10-29T00:04:41.513Z,8.93
2022-10-29T00:07:08.303Z,11.20
2022-10-29T00:09:35.628Z,12.47
2022-10-29T00:12:02.410Z,10.67
2022-10-29T00:14:29.233Z,12.20
2022-10-29T00:16:57.135Z,12.87
2022-10-29T00:19:24.085Z,11.83
2022-10-29T00:21:51.388Z,11.73
2022-10-29T00:24:18.488Z,14.80
2022-10-29T00:26:45.388Z,12.00
2022-10-29T00:29:12.317Z,11.47
2022-10-29T00:31:39.343Z,11.90
2022-10-29T00:34:06.311Z,11.13
2022-10-29T00:36:33.168Z,11.33
2022-10-29T00:39:00.007Z,9.97
2022-10-29T00:41:28.727Z,10.17
2022-10-29T00:44:23.197Z,10.17
2022-10-29T00:46:53.399Z,15.23
2022-10-29T00:49:20.632Z,8.90
2022-10-29T00:51:48.458Z,11.83
2022-10-29T00:54:16.826Z,13.70
2022-10-29T00:56:48.919Z,13.67
2022-10-29T00:59:17.295Z,9.73
2022-10-29T01:01:46.627Z,15.00
2022-10-29T01:04:13.983Z,12.67
2022-10-29T01:06:47.083Z,14.40
2022-10-29T01:09:14.836Z,12.70
2022-10-29T01:11:53.064Z,13.30
2022-10-29T01:14:30.954Z,9.23
2022-10-29T01:17:21.373Z,12.57
2022-10-29T01:20:25.521Z,10.80
2022-10-29T01:23:29.492Z,11.30
2022-10-29T01:26:17.494Z,10.47
2022-10-29T01:29:06.935Z,8.73
2022-10-29T01:31:51.769Z,9.53
2022-10-29T01:34:24.308Z,8.73
2022-10-29T01:36:56.435Z,7.93
2022-10-29T01:39:53.406Z,9.33
2022-10-29T01:42:27.741Z,9.33
2022-10-29T01:45:04.462Z,7.20
2022-10-29T01:47:40.314Z,10.57
2022-10-29T01:50:11.819Z,9.47
2022-10-29T01:52:40.076Z,9.47
2022-10-29T01:55:07.601Z,10.47
2022-10-29T01:57:36.543Z,11.73
2022-10-29T02:00:11.284Z,8.77
2022-10-29T02:03:21.043Z,8.13
2022-10-29T02:06:03.173Z,8.27
2022-10-29T02:08:55.628Z,13.03
2022-10-29T02:11:48.210Z,11.87
2022-10-29T02:14:23.319Z,9.20
2022-10-29T02:16:50.628Z,11.40
2022-10-29T02:19:17.423Z,10.80
2022-10-29T02:21:45.199Z,11.87
2022-10-29T02:24:12.195Z,13.50
2022-10-29T02:26:39.095Z,15.67
2022-10-29T02:29:05.936Z,16.27
2022-10-29T02:31:32.804Z,13.40
2022-10-29T02:33:59.626Z,14.00
2022-10-29T02:36:26.445Z,12.23
2022-10-29T02:38:53.264Z,12.47
2022-10-29T02:41:20.134Z,11.03
2022-10-29T02:43:47.379Z,11.33
2022-10-29T02:46:17.378Z,12.13
2022-10-29T02:48:44.549Z,11.97
2022-10-29T02:51:15.498Z,10.17
2022-10-29T02:53:42.607Z,11.37
2022-10-29T02:56:09.764Z,14.03
2022-10-29T02:58:37.319Z,11.47
2022-10-29T03:01:05.101Z,12.67
2022-10-29T03:03:32.241Z,8.90
2022-10-29T03:05:59.044Z,9.37
2022-10-29T03:08:25.932Z,9.13
2022-10-29T03:10:54.444Z,10.67
2022-10-29T03:13:21.272Z,10.07
2022-10-29T03:15:48.104Z,8.63
2022-10-29T03:18:14.913Z,13.43
2022-10-29T03:20:42.906Z,9.47
2022-10-29T03:23:09.738Z,8.73
2022-10-29T03:25:36.553Z,11.13
2022-10-29T03:28:05.305Z,9.27
2022-10-29T03:30:32.248Z,9.27
2022-10-29T03:32:59.314Z,13.50
2022-10-29T03:35:26.432Z,10.83
2022-10-29T03:37:53.703Z,9.73
2022-10-29T03:40:20.690Z,8.67
2022-10-29T03:42:47.514Z,8.40
2022-10-29T03:45:14.445Z,8.80
2022-10-29T03:47:41.500Z,11.60
2022-10-29T03:50:09.094Z,8.97
2022-10-29T03:52:36.411Z,8.63
2022-10-29T03:55:04.466Z,8.53
2022-10-29T03:57:31.904Z,9.80
2022-10-29T03:59:58.844Z,8.70
2022-10-29T04:02:25.743Z,10.53
2022-10-29T04:04:52.841Z,9.60
2022-10-29T04:07:19.723Z,8.83
2022-10-29T04:09:46.599Z,9.50
2022-10-29T04:12:13.591Z,7.77
2022-10-29T04:14:45.474Z,10.30
2022-10-29T04:17:13.017Z,10.00
2022-10-29T04:19:40.619Z,7.90
2022-10-29T04:30:28.450Z,10.90
2022-10-29T04:33:01.332Z,9.90
2022-10-29T04:35:29.177Z,13.90
2022-10-29T04:37:55.992Z,11.53
2022-10-29T04:40:24.489Z,14.63
2022-10-29T04:42:51.742Z,12.80
2022-10-29T04:45:19.808Z,10.43
2022-10-29T04:47:46.620Z,12.50
2022-10-29T04:50:13.658Z,10.80
2022-10-29T04:52:41.278Z,13.03
2022-10-29T04:55:08.459Z,21.43
2022-10-29T04:57:35.328Z,14.63
2022-10-29T05:00:02.438Z,13.57
2022-10-29T05:02:30.956Z,10.83
2022-10-29T05:04:57.780Z,14.77
2022-10-29T05:07:24.714Z,13.23
2022-10-29T05:09:51.724Z,12.77
2022-10-29T05:12:18.544Z,15.67
2022-10-29T05:14:45.369Z,15.83
2022-10-29T05:17:12.235Z,12.73
2022-10-29T05:19:39.064Z,12.70
2022-10-29T05:22:05.935Z,13.00
2022-10-29T05:24:32.902Z,13.10
2022-10-29T05:26:59.837Z,11.80
2022-10-29T05:29:26.637Z,15.97
2022-10-29T05:31:54.658Z,11.97
2022-10-29T05:34:21.718Z,11.33
2022-10-29T05:36:48.757Z,10.43
2022-10-29T05:39:15.729Z,10.20
2022-10-29T05:41:42.745Z,12.17
2022-10-29T05:44:09.787Z,12.60
2022-10-29T05:46:36.674Z,12.57
2022-10-29T05:49:04.524Z,9.57
2022-10-29T05:51:31.443Z,7.43
2022-10-29T05:53:58.278Z,9.37
2022-10-29T05:56:25.247Z,9.23
2022-10-29T05:58:52.220Z,10.07
2022-10-29T06:01:22.010Z,7.97
2022-10-29T06:03:48.955Z,11.20
2022-10-29T06:06:15.932Z,9.83
2022-10-29T06:08:42.855Z,9.03
2022-10-29T06:11:09.691Z,7.77
2022-10-29T06:13:36.623Z,10.53
2022-10-29T06:16:03.557Z,9.73
2022-10-29T06:18:30.497Z,8.73
2022-10-29T06:21:00.661Z,11.33
2022-10-29T06:23:28.645Z,8.80
2022-10-29T06:25:55.477Z,8.93
2022-10-29T06:28:22.387Z,8.57
2022-10-29T06:30:50.294Z,6.87
2022-10-29T06:33:20.656Z,7.43
2022-10-29T06:35:47.911Z,10.57
2022-10-29T06:38:15.314Z,9.77
2022-10-29T06:40:42.606Z,9.70
2022-10-29T06:43:11.663Z,6.83
2022-10-29T06:45:39.170Z,9.73
2022-10-29T06:48:06.661Z,6.77
2022-10-29T06:50:33.838Z,13.00
2022-10-29T06:53:06.498Z,11.63
2022-10-29T06:55:34.658Z,11.17
2022-10-29T06:58:11.174Z,8.87
2022-10-29T07:00:38.688Z,7.43
2022-10-29T07:03:07.361Z,9.23
2022-10-29T07:05:36.287Z,9.77
2022-10-29T07:08:03.256Z,9.03
2022-10-29T07:10:31.985Z,14.47
2022-10-29T07:13:00.576Z,8.07
2022-10-29T07:15:30.654Z,8.50
2022-10-29T07:18:02.320Z,11.27
2022-10-29T07:20:31.520Z,14.90
2022-10-29T07:23:00.414Z,9.40
2022-10-29T07:25:28.814Z,11.67
2022-10-29T07:28:02.246Z,8.23
2022-10-29T07:30:29.381Z,8.93
2022-10-29T07:32:56.425Z,10.27
2022-10-29T07:35:23.335Z,11.83
2022-10-29T07:37:50.293Z,9.93
2022-10-29T07:40:17.331Z,13.37
2022-10-29T07:42:44.217Z,12.17
2022-10-29T07:45:11.136Z,12.07
2022-10-29T07:47:38.152Z,12.43
2022-10-29T07:50:05.286Z,16.13
2022-10-29T07:52:32.153Z,6.40
2022-10-29T07:55:01.458Z,8.43
2022-10-29T07:57:30.376Z,13.37
2022-10-29T07:59:57.340Z,10.20
2022-10-29T08:02:24.276Z,10.33
2022-10-29T08:04:51.202Z,6.93
2022-10-29T08:07:18.216Z,9.80
2022-10-29T08:09:45.058Z,8.67
2022-10-29T08:12:11.890Z,9.20
2022-10-29T08:14:38.774Z,8.20
2022-10-29T08:17:05.656Z,6.77
2022-10-29T08:19:32.563Z,8.57
2022-10-29T08:21:59.458Z,7.10
2022-10-29T08:24:26.299Z,8.63
2022-10-29T08:26:53.184Z,8.20
2022-10-29T08:29:20.093Z,8.90
2022-10-29T08:31:47.237Z,5.73
2022-10-29T08:34:14.139Z,19.90
2022-10-29T08:36:41.577Z,10.83
2022-10-29T08:39:08.459Z,13.10
2022-10-29T08:42:16.498Z,6.57
2022-10-29T08:45:01.573Z,8.40
2022-10-29T08:47:45.925Z,7.80
2022-10-29T08:50:33.247Z,4.87
2022-10-29T08:53:22.166Z,14.07
2022-10-29T08:55:49.274Z,5.83
2022-10-29T08:58:33.035Z,9.33
2022-10-29T09:01:00.014Z,6.17
2022-10-29T09:03:29.853Z,10.93
2022-10-29T09:06:09.658Z,11.23
2022-10-29T09:08:55.168Z,12.23
2022-10-29T09:11:42.911Z,13.00
2022-10-29T09:14:29.167Z,9.70
2022-10-29T09:17:20.977Z,8.30
2022-10-29T09:20:12.244Z,7.63
2022-10-29T09:23:04.106Z,10.90
2022-10-29T09:25:37.476Z,9.07
2022-10-29T09:28:24.302Z,9.63
2022-10-29T09:31:14.182Z,7.57
2022-10-29T09:33:41.623Z,11.50
2022-10-29T09:36:18.134Z,15.00
2022-10-29T09:38:57.017Z,4.40
2022-10-29T09:41:30.900Z,7.23
2022-10-29T09:44:06.975Z,7.43
2022-10-29T09:46:53.709Z,10.37
2022-10-29T09:49:39.857Z,6.07
2022-10-29T09:52:26.999Z,11.40
2022-10-29T09:54:54.868Z,7.53
2022-10-29T09:57:34.299Z,7.07
2022-10-29T10:00:07.187Z,5.97
2022-10-29T10:02:45.329Z,5.80
2022-10-29T10:05:12.235Z,4.33
2022-10-29T10:07:39.737Z,3.27
2022-10-29T10:10:20.224Z,4.80
2022-10-29T10:12:49.318Z,4.20
2022-10-29T10:15:16.247Z,3.10
2022-10-29T10:18:04.907Z,4.77
2022-10-29T10:20:38.436Z,16.37
2022-10-29T10:23:23.930Z,7.27
2022-10-29T10:25:53.402Z,5.30
2022-10-29T10:28:25.912Z,9.33
2022-10-29T10:31:04.915Z,7.87
2022-10-29T10:33:34.157Z,2.63
2022-10-29T10:36:05.543Z,5.40
2022-10-29T10:38:49.123Z,5.77
2022-10-29T10:41:24.576Z,4.27
2022-10-29T10:43:52.025Z,4.77
2022-10-29T10:46:29.829Z,4.77
2022-10-29T10:49:03.637Z,7.63
2022-10-29T10:51:36.213Z,6.70
2022-10-29T10:54:23.975Z,6.47
2022-10-29T10:57:21.174Z,4.03
2022-10-29T10:59:52.237Z,15.10
2022-10-29T11:02:45.245Z,7.20
2022-10-29T11:05:20.020Z,6.50
2022-10-29T11:07:59.956Z,5.20
2022-10-29T11:10:58.766Z,5.47
2022-10-29T11:13:29.857Z,4.23
2022-10-29T11:16:05.881Z,4.10
2022-10-29T11:18:45.767Z,3.20
2022-10-29T11:21:19.403Z,4.53
2022-10-29T11:24:10.858Z,6.70
2022-10-29T11:26:45.366Z,3.67
2022-10-29T11:29:17.896Z,4.40
2022-10-29T11:32:00.069Z,4.27
2022-10-29T11:34:42.247Z,3.03
2022-10-29T11:37:21.240Z,6.10
2022-10-29T11:39:53.858Z,5.93
2022-10-29T11:42:20.797Z,3.93
2022-10-29T11:44:47.907Z,4.27
2022-10-29T11:47:36.135Z,5.23
2022-10-29T11:50:47.781Z,3.97
2022-10-29T11:53:20.555Z,3.57
2022-10-29T11:56:00.904Z,3.13
2022-10-29T11:58:52.217Z,4.37
2022-10-29T12:01:48.839Z,3.30
2022-10-29T12:04:28.683Z,3.47
2022-10-29T12:07:29.131Z,3.80
2022-10-29T12:10:15.429Z,9.63
2022-10-29T12:13:13.067Z,9.77
2022-10-29T12:16:14.581Z,6.90
2022-10-29T12:18:47.337Z,4.00
2022-10-29T12:21:33.137Z,4.57
2022-10-29T12:24:03.157Z,4.17
2022-10-29T12:26:42.894Z,3.63
2022-10-29T12:29:21.978Z,5.30
2022-10-29T12:31:52.976Z,4.07
2022-10-29T12:34:42.735Z,4.07
2022-10-29T12:37:12.242Z,6.03
2022-10-29T12:39:49.428Z,5.50
2022-10-29T12:42:24.721Z,12.03
2022-10-29T12:45:14.424Z,4.93
2022-10-29T12:47:55.405Z,8.37
2022-10-29T12:50:28.660Z,3.03
2022-10-29T12:53:20.306Z,4.53
2022-10-29T12:55:48.326Z,5.27
2022-10-29T12:58:44.753Z,4.07
2022-10-29T13:02:10.530Z,2.70
2022-10-29T13:04:32.667Z,2.97
2022-10-29T13:07:04.623Z,3.17
2022-10-29T13:09:36.074Z,3.20
2022-10-29T13:12:13.938Z,1.77
2022-10-29T13:14:47.334Z,3.83
2022-10-29T13:17:20.252Z,1.53
2022-10-29T13:19:55.950Z,1.70
2022-10-29T13:22:51.577Z,2.63
2022-10-29T13:25:33.290Z,1.40
2022-10-29T13:28:09.351Z,3.27
2022-10-29T13:30:39.129Z,1.53
2022-10-29T13:33:26.271Z,1.60
2022-10-29T13:36:05.087Z,1.47
2022-10-29T13:39:04.464Z,1.63
2022-10-29T13:41:40.840Z,2.47
2022-10-29T13:44:07.662Z,1.80
2022-10-29T13:46:53.342Z,3.67
2022-10-29T13:49:32.266Z,8.63
2022-10-29T13:52:01.271Z,6.93
2022-10-29T13:54:56.937Z,8.80
2022-10-29T13:57:33.821Z,10.43
2022-10-29T14:00:03.678Z,8.10
2022-10-29T14:02:56.424Z,7.27
2022-10-29T14:05:42.392Z,9.23
2022-10-29T14:08:39.849Z,7.47
2022-10-29T14:11:17.370Z,7.57
2022-10-29T14:13:48.544Z,3.23
2022-10-29T14:16:17.055Z,7.70
2022-10-29T14:18:46.051Z,6.53
2022-10-29T14:21:25.114Z,4.50
2022-10-29T14:24:09.812Z,4.90
2022-10-29T14:26:39.747Z,5.40
2022-10-29T14:29:20.977Z,8.07
2022-10-29T14:32:03.903Z,7.00
2022-10-29T14:34:31.136Z,8.47
2022-10-29T14:37:05.592Z,5.80
2022-10-29T14:39:57.888Z,7.00
2022-10-29T14:42:38.946Z,6.10
2022-10-29T14:45:28.521Z,5.63
2022-10-29T14:47:57.974Z,9.13
2022-10-29T14:50:31.860Z,11.30
2022-10-29T14:53:24.751Z,15.40
2022-10-29T14:55:51.845Z,13.10
2022-10-29T14:58:27.782Z,19.07
2022-10-29T15:01:00.316Z,12.27
2022-10-29T15:03:32.123Z,10.07
2022-10-29T15:06:18.131Z,11.63
2022-10-29T15:08:53.734Z,14.60
2022-10-29T15:11:34.578Z,10.67
2022-10-29T15:14:03.594Z,7.27
2022-10-29T15:16:35.723Z,10.60
2022-10-29T15:19:05.341Z,15.67
2022-10-29T15:21:33.227Z,9.03
2022-10-29T15:24:06.529Z,13.53
2022-10-29T15:26:43.631Z,10.87
2022-10-29T15:29:12.375Z,7.73
2022-10-29T15:31:46.790Z,11.80
2022-10-29T15:34:18.832Z,8.33
2022-10-29T15:36:51.272Z,10.10
2022-10-29T15:39:27.007Z,9.30
2022-10-29T15:41:59.527Z,14.77
2022-10-29T15:44:30.652Z,10.27
2022-10-29T15:46:59.740Z,14.87
2022-10-29T15:49:31.388Z,10.80
2022-10-29T15:52:00.852Z,14.67
2022-10-29T15:54:28.732Z,9.70
2022-10-29T15:56:55.639Z,18.30
2022-10-29T15:59:25.902Z,14.47
2022-10-29T16:01:53.081Z,14.67
2022-10-29T16:04:20.090Z,18.80
2022-10-29T16:06:46.975Z,20.53
2022-10-29T16:09:19.765Z,16.07
2022-10-29T16:11:46.735Z,13.47
2022-10-29T16:14:13.811Z,9.43
2022-10-29T16:16:40.758Z,12.57
2022-10-29T16:19:07.954Z,16.07
2022-10-29T16:21:35.065Z,9.23
2022-10-29T16:24:01.920Z,14.13
2022-10-29T16:26:28.768Z,10.60
2022-10-29T16:28:56.651Z,9.60
2022-10-29T16:31:28.577Z,11.00
2022-10-29T16:33:58.757Z,9.10
2022-10-29T16:36:25.774Z,9.83
2022-10-29T16:38:52.732Z,13.27
2022-10-29T16:41:20.649Z,14.87
2022-10-29T16:43:48.355Z,19.33
2022-10-29T16:46:15.457Z,15.60
2022-10-29T16:48:42.667Z,17.07
2022-10-29T16:51:09.620Z,13.30
2022-10-29T16:53:36.600Z,13.97
2022-10-29T16:56:03.876Z,7.13
2022-10-29T16:58:30.804Z,7.40
2022-10-29T17:01:10.426Z,9.47
2022-10-29T17:03:39.162Z,12.93
2022-10-29T17:06:08.373Z,11.07
2022-10-29T17:08:36.777Z,20.97
2022-10-29T17:11:06.051Z,19.37
2022-10-29T17:13:34.230Z,21.67
2022-10-29T17:16:01.227Z,20.23
2022-10-29T17:18:28.084Z,15.67
2022-10-29T17:20:59.793Z,19.33
2022-10-29T17:23:27.415Z,18.57
2022-10-29T17:25:58.453Z,22.90
2022-10-29T17:28:27.648Z,23.03
2022-10-29T17:30:54.578Z,22.30
2022-10-29T17:33:21.561Z,27.07
2022-10-29T17:35:48.433Z,21.50
2022-10-29T17:38:15.284Z,17.30
2022-10-29T17:40:44.498Z,17.80
2022-10-29T17:43:11.575Z,15.73
2022-10-29T17:45:38.512Z,20.97
2022-10-29T17:48:05.656Z,11.80
2022-10-29T17:50:32.505Z,16.33
2022-10-29T17:52:59.424Z,14.40
2022-10-29T17:55:26.339Z,15.80
2022-10-29T17:57:53.275Z,13.33
2022-10-29T18:00:20.376Z,12.23
2022-10-29T18:02:50.992Z,14.40
2022-10-29T18:05:18.863Z,11.93
2022-10-29T18:07:45.744Z,10.70
2022-10-29T18:10:12.633Z,12.30
2022-10-29T18:12:39.456Z,15.67
2022-10-29T18:15:06.857Z,11.23
2022-10-29T18:17:33.737Z,10.53
2022-10-29T18:20:00.693Z,13.30
2022-10-29T18:22:27.778Z,12.80
2022-10-29T18:24:54.736Z,14.47
2022-10-29T18:27:21.672Z,12.80
2022-10-29T18:29:48.691Z,12.10
2022-10-29T18:32:15.766Z,10.97
2022-10-29T18:34:42.645Z,17.83
2022-10-29T18:37:09.581Z,19.37
2022-10-29T18:39:36.530Z,16.53
2022-10-29T18:42:03.726Z,19.70
2022-10-29T18:44:30.788Z,12.57
2022-10-29T18:46:57.695Z,12.90
2022-10-29T18:49:24.583Z,12.37
2022-10-29T18:51:53.177Z,13.13
2022-10-29T18:54:20.284Z,11.90
2022-10-29T18:56:47.191Z,12.83
2022-10-29T18:59:14.222Z,14.57
2022-10-29T19:01:41.563Z,14.83
2022-10-29T19:04:11.661Z,7.70
2022-10-29T19:06:38.519Z,9.43
2022-10-29T19:09:08.205Z,7.40
2022-10-29T19:11:35.488Z,11.30
2022-10-29T19:14:08.095Z,7.33
2022-10-29T19:16:35.291Z,9.47
2022-10-29T19:19:07.701Z,9.63
2022-10-29T19:21:36.423Z,9.27
2022-10-29T19:24:04.324Z,5.73
2022-10-29T19:26:33.651Z,6.50
2022-10-29T19:29:02.774Z,8.53
2022-10-29T19:31:31.141Z,8.37
2022-10-29T19:34:00.986Z,4.77
2022-10-29T19:36:29.483Z,8.13
2022-10-29T19:38:57.042Z,21.27
2022-10-29T19:41:24.149Z,8.17
2022-10-29T19:43:51.022Z,7.47
2022-10-29T19:46:22.854Z,11.50
2022-10-29T19:48:51.358Z,8.57
2022-10-29T19:51:18.716Z,10.13
2022-10-29T19:53:45.771Z,9.83
2022-10-29T19:56:14.862Z,10.73
2022-10-29T19:58:42.128Z,9.07
2022-10-29T20:01:15.953Z,9.83
2022-10-29T20:03:43.789Z,13.00
2022-10-29T20:06:11.223Z,11.83
2022-10-29T20:08:38.868Z,11.80
2022-10-29T20:11:06.578Z,9.17
2022-10-29T20:13:33.766Z,14.60
2022-10-29T20:16:06.327Z,9.73
2022-10-29T20:18:34.601Z,10.53
2022-10-29T20:21:01.624Z,9.53
2022-10-29T20:23:28.541Z,7.47
2022-10-29T20:25:55.505Z,8.70
2022-10-29T20:28:22.435Z,10.20
2022-10-29T20:30:49.292Z,9.43
2022-10-29T20:33:16.205Z,7.73
2022-10-29T20:35:43.042Z,8.30
2022-10-29T20:38:09.870Z,11.60
2022-10-29T20:40:37.110Z,8.00
2022-10-29T20:43:04.034Z,11.50
2022-10-29T20:45:31.004Z,9.30
2022-10-29T20:47:58.026Z,7.63
2022-10-29T20:50:25.150Z,8.73
2022-10-29T20:52:53.717Z,11.50
2022-10-29T20:55:20.516Z,14.37
2022-10-29T20:57:47.416Z,9.80
2022-10-29T21:00:14.602Z,13.83
2022-10-29T21:02:41.731Z,11.83
2022-10-29T21:05:08.979Z,9.33
2022-10-29T21:07:35.833Z,9.80
2022-10-29T21:10:02.747Z,8.20
2022-10-29T21:12:30.098Z,11.57
2022-10-29T21:14:56.923Z,10.03
2022-10-29T21:17:24.545Z,10.60
2022-10-29T21:19:51.433Z,11.17
2022-10-29T21:22:19.229Z,7.93
2022-10-29T21:24:46.324Z,9.57
2022-10-29T21:27:13.254Z,8.60
2022-10-29T21:29:40.240Z,8.93
2022-10-29T21:32:10.206Z,9.67
2022-10-29T21:34:41.229Z,10.07
2022-10-29T21:37:08.186Z,16.13
2022-10-29T21:39:35.650Z,12.17
2022-10-29T21:42:02.647Z,11.17
2022-10-29T21:44:29.615Z,11.90
2022-10-29T21:46:56.482Z,12.90
2022-10-29T21:49:23.325Z,13.47
2022-10-29T21:51:50.435Z,12.37
2022-10-29T21:54:17.281Z,12.53
2022-10-29T21:56:44.188Z,13.77
2022-10-29T21:59:11.084Z,17.13
2022-10-29T22:01:38.185Z,10.40
2022-10-29T22:04:05.237Z,11.40
2022-10-29T22:06:32.053Z,10.33
2022-10-29T22:09:00.246Z,10.43
2022-10-29T22:11:28.605Z,10.53
2022-10-29T22:13:55.593Z,12.17
2022-10-29T22:16:23.200Z,13.40
2022-10-29T22:18:50.996Z,10.00
2022-10-29T22:21:20.958Z,10.80
2022-10-29T22:23:53.158Z,10.27
2022-10-29T22:26:22.768Z,13.93
2022-10-29T22:28:52.529Z,13.50
2022-10-29T22:31:20.999Z,9.40
2022-10-29T22:33:48.223Z,11.30
2022-10-29T22:36:17.632Z,14.10
2022-10-29T22:38:44.746Z,9.63
2022-10-29T22:41:16.312Z,9.97
2022-10-29T22:43:44.235Z,10.20
2022-10-29T22:46:14.440Z,9.03
2022-10-29T22:48:41.462Z,9.10
2022-10-29T22:51:13.787Z,10.37
2022-10-29T22:53:41.290Z,10.17
2022-10-29T22:56:10.838Z,16.37
2022-10-29T22:58:37.642Z,12.07
2022-10-29T23:01:12.843Z,10.77
2022-10-29T23:03:40.946Z,11.27
2022-10-29T23:06:10.141Z,12.40
2022-10-29T23:08:37.143Z,12.17
2022-10-29T23:11:24.390Z,11.53
2022-10-29T23:13:56.299Z,11.77
2022-10-29T23:16:25.009Z,12.60
2022-10-29T23:18:53.633Z,12.93
2022-10-29T23:21:21.238Z,11.60
2022-10-29T23:23:49.881Z,10.70
2022-10-29T23:26:21.631Z,14.83
2022-10-29T23:28:49.097Z,9.80
2022-10-29T23:31:23.540Z,11.40
2022-10-29T23:33:52.511Z,10.63
2022-10-29T23:36:21.676Z,15.27
2022-10-29T23:38:53.675Z,9.33
2022-10-29T23:41:20.554Z,12.60
2022-10-29T23:43:47.381Z,11.00
2022-10-29T23:46:14.232Z,12.40
2022-10-29T23:48:41.066Z,8.07
2022-10-29T23:51:07.943Z,9.77
2022-10-29T23:53:34.740Z,9.77
2022-10-29T23:56:01.630Z,11.10
2022-10-29T23:58:28.589Z,9.87
